Turret, Colorado
Current Conditions -  °F | °C
As of 7:55 PM on Monday 22 Dec 2014 (Local Time) from KANK Reporting Station
Overcast Overcast  
Wind Chill: 26°   Ceiling: 7000
Heat Index: 26°   Visibility: 10mi
Dew Point: 18°   Wind: 3mph
Humidity: 71%   Direction: 300°WNW
Pressure: 29.88"   Gusts: NA
Location:  38.5561°N, 106.066°W
Report Text: KANK 230255Z AUTO 30003KT 10SM SCT065 BKN070 OVC080 M03/M08 A2988 RMK AO1 T10341079
Loading
Personal Weather Stations






























Interactive Weather Map New forecast layout! Learn more

10-Day Weather Forecast

Advertisements
Track Severe Weather on mobile